createdAt,value
2023-05-14T00:00:41.550Z,12.74
2023-05-14T00:01:41.576Z,12.74
2023-05-14T00:02:41.687Z,12.77
2023-05-14T00:03:41.686Z,12.75
2023-05-14T00:04:41.723Z,12.78
2023-05-14T00:05:41.646Z,12.75
2023-05-14T00:06:41.640Z,12.80
2023-05-14T00:07:41.657Z,12.73
2023-05-14T00:08:41.728Z,12.74
2023-05-14T00:09:41.706Z,12.73
2023-05-14T00:10:41.727Z,12.74
2023-05-14T00:11:41.741Z,12.73
2023-05-14T00:12:41.754Z,12.74
2023-05-14T00:13:41.786Z,12.73
2023-05-14T00:14:41.776Z,12.74
2023-05-14T00:15:41.813Z,12.75
2023-05-14T00:16:41.771Z,12.80
2023-05-14T00:17:41.830Z,12.84
2023-05-14T00:18:41.833Z,12.85
2023-05-14T00:19:41.785Z,12.90
2023-05-14T00:20:41.801Z,12.94
2023-05-14T00:21:41.855Z,12.96
2023-05-14T00:22:41.914Z,12.96
2023-05-14T00:23:41.957Z,12.98
2023-05-14T00:24:42.021Z,13.04
2023-05-14T00:25:42.026Z,13.05
2023-05-14T00:26:42.074Z,13.06
2023-05-14T00:27:42.107Z,13.06
2023-05-14T00:28:42.160Z,13.11
2023-05-14T00:29:42.224Z,13.11
2023-05-14T00:30:42.211Z,13.08
2023-05-14T00:31:42.278Z,13.06
2023-05-14T00:32:42.362Z,13.06
2023-05-14T00:33:42.344Z,13.06
2023-05-14T00:34:42.424Z,13.08
2023-05-14T00:35:42.467Z,12.99
2023-05-14T00:36:42.519Z,12.84
2023-05-14T00:37:42.576Z,12.63
2023-05-14T00:38:42.681Z,12.84
2023-05-14T00:39:42.703Z,12.90
2023-05-14T00:40:42.685Z,12.95
2023-05-14T00:41:42.722Z,12.96
2023-05-14T00:42:42.764Z,12.91
2023-05-14T00:43:42.797Z,12.96
2023-05-14T00:44:42.858Z,13.01
2023-05-14T00:45:42.884Z,13.05
2023-05-14T00:46:42.968Z,13.05
2023-05-14T00:47:42.975Z,13.08
2023-05-14T00:48:42.935Z,13.11
2023-05-14T00:49:43.004Z,13.11
2023-05-14T00:50:43.029Z,13.08
2023-05-14T00:51:43.079Z,12.98
2023-05-14T00:52:43.175Z,12.96
2023-05-14T00:53:43.239Z,12.85
2023-05-14T00:54:43.310Z,12.67
2023-05-14T00:55:43.407Z,12.81
2023-05-14T00:56:43.448Z,12.67
2023-05-14T00:57:43.516Z,12.74
2023-05-14T00:58:43.599Z,12.78
2023-05-14T00:59:43.683Z,12.70
2023-05-14T01:00:43.716Z,12.50
2023-05-14T01:01:43.808Z,12.58
2023-05-14T01:02:43.980Z,12.63
2023-05-14T01:03:44.112Z,12.57
2023-05-14T01:04:44.034Z,12.32
2023-05-14T01:05:44.105Z,12.43
2023-05-14T01:06:44.169Z,12.41
2023-05-14T01:07:44.241Z,12.46
2023-05-14T01:08:44.314Z,12.50
2023-05-14T01:09:44.362Z,12.54
2023-05-14T01:10:44.396Z,12.50
2023-05-14T01:11:44.422Z,12.53
2023-05-14T01:12:44.457Z,12.46
2023-05-14T01:13:44.492Z,12.53
2023-05-14T01:14:44.546Z,12.51
2023-05-14T01:15:44.588Z,12.51
2023-05-14T01:16:44.678Z,12.50
2023-05-14T01:17:44.716Z,12.51
2023-05-14T01:18:44.759Z,12.49
2023-05-14T01:19:44.785Z,12.49
2023-05-14T01:20:44.817Z,12.47
2023-05-14T01:21:44.839Z,12.47
2023-05-14T01:22:44.867Z,12.41
2023-05-14T01:23:44.893Z,12.43
2023-05-14T01:24:44.996Z,12.41
2023-05-14T01:25:44.973Z,12.13
2023-05-14T01:26:44.983Z,12.23
2023-05-14T01:27:45.012Z,12.23
2023-05-14T01:28:45.042Z,12.28
2023-05-14T01:29:45.057Z,12.15
2023-05-14T01:30:45.079Z,12.02
2023-05-14T01:31:45.105Z,12.09
2023-05-14T01:32:45.199Z,12.19
2023-05-14T01:33:45.264Z,12.16
2023-05-14T01:34:45.304Z,12.12
2023-05-14T01:35:45.379Z,11.81
2023-05-14T01:36:45.429Z,11.66
2023-05-14T01:37:45.499Z,11.73
2023-05-14T01:38:45.589Z,11.84
2023-05-14T01:39:45.609Z,11.96
2023-05-14T01:40:45.657Z,12.01
2023-05-14T01:41:45.684Z,12.09
2023-05-14T01:42:45.745Z,12.16
2023-05-14T01:43:45.769Z,12.26
2023-05-14T01:44:45.806Z,12.33
2023-05-14T01:45:45.989Z,12.40
2023-05-14T01:46:45.929Z,12.49
2023-05-14T01:47:46.009Z,12.53
2023-05-14T01:48:46.044Z,12.57
2023-05-14T01:49:46.125Z,12.53
2023-05-14T01:50:46.160Z,12.60
2023-05-14T01:51:46.202Z,12.67
2023-05-14T01:52:46.266Z,12.73
2023-05-14T01:53:46.304Z,12.70
2023-05-14T01:54:46.352Z,12.77
2023-05-14T01:55:46.409Z,12.80
2023-05-14T01:56:46.460Z,12.83
2023-05-14T01:57:46.497Z,12.85
2023-05-14T01:58:46.550Z,12.88
2023-05-14T01:59:46.568Z,12.94
2023-05-14T02:00:46.629Z,12.85
2023-05-14T02:01:46.680Z,12.96
2023-05-14T02:02:46.686Z,12.98
2023-05-14T02:03:46.724Z,12.98
2023-05-14T02:04:46.728Z,13.01
2023-05-14T02:05:46.804Z,13.04
2023-05-14T02:06:46.839Z,13.04
2023-05-14T02:07:46.847Z,12.90
2023-05-14T02:08:46.885Z,12.95
2023-05-14T02:09:46.917Z,12.99
2023-05-14T02:10:46.958Z,13.02
2023-05-14T02:11:46.999Z,13.05
2023-05-14T02:12:47.031Z,13.05
2023-05-14T02:13:47.064Z,13.08
2023-05-14T02:14:47.094Z,13.09
2023-05-14T02:15:47.163Z,13.13
2023-05-14T02:16:47.165Z,13.12
2023-05-14T02:17:47.218Z,13.15
2023-05-14T02:18:47.295Z,13.16
2023-05-14T02:19:47.255Z,13.16
2023-05-14T02:20:47.263Z,13.21
2023-05-14T02:21:47.313Z,13.21
2023-05-14T02:22:47.335Z,13.22
2023-05-14T02:23:47.338Z,13.23
2023-05-14T02:24:47.371Z,13.23
2023-05-14T02:25:47.416Z,13.23
2023-05-14T02:26:47.432Z,13.23
2023-05-14T02:27:47.491Z,13.23
2023-05-14T02:28:47.519Z,13.26
2023-05-14T02:29:47.570Z,13.27
2023-05-14T02:30:47.589Z,13.25
2023-05-14T02:31:47.675Z,13.27
2023-05-14T02:32:47.770Z,13.29
2023-05-14T02:33:47.682Z,13.27
2023-05-14T02:34:47.700Z,13.32
2023-05-14T02:35:47.730Z,13.30
2023-05-14T02:36:47.767Z,13.29
2023-05-14T02:37:47.869Z,13.30
2023-05-14T02:38:47.820Z,13.30
2023-05-14T02:39:47.833Z,13.29
2023-05-14T02:40:47.869Z,13.32
2023-05-14T02:41:47.910Z,13.29
2023-05-14T02:42:47.944Z,13.33
2023-05-14T02:43:47.988Z,13.32
2023-05-14T02:44:48.024Z,13.29
2023-05-14T02:45:48.052Z,13.29
2023-05-14T02:46:48.125Z,13.30
2023-05-14T02:47:48.157Z,13.32
2023-05-14T02:48:48.129Z,13.33
2023-05-14T02:49:48.159Z,13.35
2023-05-14T02:50:48.191Z,13.35
2023-05-14T02:51:48.215Z,13.35
2023-05-14T02:52:48.249Z,13.35
2023-05-14T02:53:48.289Z,13.38
2023-05-14T02:54:48.321Z,13.38
2023-05-14T02:55:48.333Z,13.38
2023-05-14T02:56:48.391Z,13.32
2023-05-14T02:57:48.379Z,13.32
2023-05-14T02:58:48.396Z,13.26
2023-05-14T02:59:48.430Z,13.30
2023-05-14T03:00:48.468Z,13.30
2023-05-14T03:01:48.500Z,13.30
2023-05-14T03:02:48.607Z,13.32
2023-05-14T03:03:48.527Z,13.29
2023-05-14T03:04:48.554Z,13.33
2023-05-14T03:05:48.589Z,13.35
2023-05-14T03:06:48.606Z,13.35
2023-05-14T03:07:48.616Z,13.30
2023-05-14T03:08:48.632Z,13.36
2023-05-14T03:09:48.653Z,13.08
2023-05-14T03:10:48.642Z,13.11
2023-05-14T03:11:48.648Z,13.19
2023-05-14T03:12:48.652Z,13.25
2023-05-14T03:13:48.663Z,13.22
2023-05-14T03:14:48.673Z,13.27
2023-05-14T03:15:48.777Z,13.30
2023-05-14T03:16:48.749Z,13.32
2023-05-14T03:17:48.779Z,13.32
2023-05-14T03:18:48.780Z,13.35
2023-05-14T03:19:48.785Z,13.35
2023-05-14T03:20:48.832Z,13.29
2023-05-14T03:21:48.831Z,13.33
2023-05-14T03:22:48.880Z,13.35
2023-05-14T03:23:48.919Z,13.30
2023-05-14T03:24:48.960Z,13.30
2023-05-14T03:25:49.074Z,13.27
2023-05-14T03:26:49.076Z,13.26
2023-05-14T03:27:49.124Z,13.23
2023-05-14T03:28:49.195Z,13.22
2023-05-14T03:29:49.241Z,13.19
2023-05-14T03:30:49.329Z,13.21
2023-05-14T03:31:49.646Z,13.12
2023-05-14T03:32:49.538Z,13.11
2023-05-14T03:33:49.485Z,12.94
2023-05-14T03:34:49.538Z,12.96
2023-05-14T03:35:49.599Z,12.96
2023-05-14T03:36:49.648Z,12.88
2023-05-14T03:37:49.704Z,12.91
2023-05-14T03:38:49.742Z,12.91
2023-05-14T03:39:49.798Z,12.74
2023-05-14T03:40:49.856Z,12.84
2023-05-14T03:41:50.058Z,12.84
2023-05-14T03:42:50.008Z,12.84
2023-05-14T03:43:50.072Z,12.84
2023-05-14T03:44:50.095Z,12.78
2023-05-14T03:45:50.149Z,12.70
2023-05-14T03:46:50.205Z,12.63
2023-05-14T03:47:50.432Z,12.66
2023-05-14T03:48:50.260Z,12.67
2023-05-14T03:49:50.266Z,12.66
2023-05-14T03:50:50.300Z,12.64
2023-05-14T03:51:50.353Z,12.57
2023-05-14T03:52:50.398Z,12.49
2023-05-14T03:53:50.463Z,12.50
2023-05-14T03:54:50.523Z,12.40
2023-05-14T03:55:50.596Z,12.35
2023-05-14T03:56:50.666Z,12.36
2023-05-14T03:57:50.783Z,12.06
2023-05-14T03:58:50.838Z,11.87
2023-05-14T03:59:50.921Z,11.85
2023-05-14T04:00:50.976Z,11.66
2023-05-14T04:01:51.047Z,11.68
2023-05-14T04:02:51.210Z,11.56
2023-05-14T04:03:51.481Z,11.50
2023-05-14T04:04:51.488Z,11.40
2023-05-14T04:05:51.435Z,11.50
2023-05-14T04:06:51.520Z,11.36
2023-05-14T04:07:51.580Z,11.25
2023-05-14T04:08:51.646Z,11.37
2023-05-14T04:09:51.722Z,11.39
2023-05-14T04:10:51.817Z,11.43
2023-05-14T04:11:51.867Z,11.27
2023-05-14T04:12:51.937Z,11.26
2023-05-14T04:13:52.026Z,11.33
2023-05-14T04:14:52.059Z,11.37
2023-05-14T04:15:52.165Z,11.41
2023-05-14T04:16:52.818Z,11.29
2023-05-14T04:17:52.291Z,11.30
2023-05-14T04:18:52.396Z,11.34
2023-05-14T04:19:52.414Z,11.37
2023-05-14T04:20:52.500Z,11.41
2023-05-14T04:21:52.583Z,11.44
2023-05-14T04:22:52.651Z,11.44
2023-05-14T04:23:52.723Z,11.49
2023-05-14T04:24:52.768Z,11.54
2023-05-14T04:25:52.848Z,11.59
2023-05-14T04:26:52.948Z,11.64
2023-05-14T04:27:53.047Z,11.66
2023-05-14T04:28:53.110Z,11.64
2023-05-14T04:29:53.184Z,11.63
2023-05-14T04:30:53.204Z,11.57
2023-05-14T04:31:53.312Z,11.54
2023-05-14T04:32:53.387Z,11.61
2023-05-14T04:33:53.438Z,11.68
2023-05-14T04:34:53.514Z,11.71
2023-05-14T04:35:53.588Z,11.70
2023-05-14T04:36:53.643Z,11.76
2023-05-14T04:37:53.684Z,11.80
2023-05-14T04:38:53.739Z,11.85
2023-05-14T04:39:53.780Z,11.88
2023-05-14T04:40:53.844Z,11.91
2023-05-14T04:41:53.917Z,11.94
2023-05-14T04:42:53.915Z,11.94
2023-05-14T04:43:53.995Z,11.74
2023-05-14T04:44:54.050Z,11.80
2023-05-14T04:45:54.316Z,11.85
2023-05-14T04:46:54.259Z,11.85
2023-05-14T04:47:54.330Z,11.74
2023-05-14T04:48:54.378Z,11.88
2023-05-14T04:49:54.496Z,11.94
2023-05-14T04:50:54.573Z,11.85
2023-05-14T04:51:54.596Z,11.78
2023-05-14T04:52:54.628Z,11.88
2023-05-14T04:53:54.671Z,11.95
2023-05-14T04:54:54.741Z,11.98
2023-05-14T04:55:54.805Z,11.92
2023-05-14T04:56:54.875Z,11.84
2023-05-14T04:57:54.954Z,11.74
2023-05-14T04:58:55.037Z,11.91
2023-05-14T04:59:55.132Z,11.85
2023-05-14T05:00:55.274Z,11.84
2023-05-14T05:01:55.317Z,11.82
2023-05-14T05:02:55.400Z,11.88
2023-05-14T05:03:55.515Z,11.84
2023-05-14T05:04:55.533Z,11.89
2023-05-14T05:05:55.597Z,11.95
2023-05-14T05:06:55.676Z,11.95
2023-05-14T05:07:55.753Z,12.01
2023-05-14T05:08:55.800Z,12.01
2023-05-14T05:09:55.885Z,11.98
2023-05-14T05:10:55.920Z,11.87
2023-05-14T05:11:55.948Z,11.92
2023-05-14T05:12:55.978Z,12.06
2023-05-14T05:13:56.012Z,12.09
2023-05-14T05:14:56.063Z,12.18
2023-05-14T05:15:56.466Z,12.16
2023-05-14T05:16:56.169Z,12.21
2023-05-14T05:17:56.331Z,12.25
2023-05-14T05:18:56.315Z,12.30
2023-05-14T05:19:56.351Z,12.30
2023-05-14T05:20:56.416Z,12.35
2023-05-14T05:21:56.446Z,12.40
2023-05-14T05:22:56.463Z,12.41
2023-05-14T05:23:56.489Z,12.44
2023-05-14T05:24:56.548Z,12.35
2023-05-14T05:25:56.672Z,12.47
2023-05-14T05:26:56.671Z,12.51
2023-05-14T05:27:56.728Z,12.54
2023-05-14T05:28:56.759Z,12.54
2023-05-14T05:29:56.819Z,12.61
2023-05-14T05:30:56.914Z,12.61
2023-05-14T05:31:56.991Z,12.68
2023-05-14T05:32:57.055Z,12.71
2023-05-14T05:33:57.137Z,12.70
2023-05-14T05:34:57.194Z,12.60
2023-05-14T05:35:57.219Z,12.67
2023-05-14T05:36:57.263Z,12.63
2023-05-14T05:37:59.216Z,12.61
2023-05-14T05:38:57.362Z,12.56
2023-05-14T05:39:57.370Z,12.63
2023-05-14T05:40:57.452Z,12.57
2023-05-14T05:41:57.422Z,12.43
2023-05-14T05:42:57.462Z,12.30
2023-05-14T05:43:57.498Z,12.25
2023-05-14T05:44:57.550Z,12.12
2023-05-14T05:45:57.636Z,12.19
2023-05-14T05:46:57.804Z,12.01
2023-05-14T05:47:57.735Z,12.09
2023-05-14T05:48:57.732Z,12.04
2023-05-14T05:49:57.761Z,12.05
2023-05-14T05:50:57.842Z,11.98
2023-05-14T05:51:57.789Z,12.15
2023-05-14T05:52:57.796Z,12.22
2023-05-14T05:53:57.836Z,12.26
2023-05-14T05:54:57.865Z,12.26
2023-05-14T05:55:57.920Z,12.30
2023-05-14T05:56:58.039Z,12.39
2023-05-14T05:57:58.088Z,12.47
2023-05-14T05:58:58.162Z,12.56
2023-05-14T05:59:58.210Z,12.64
2023-05-14T06:00:58.232Z,12.56
2023-05-14T06:01:58.306Z,12.64
2023-05-14T06:02:58.291Z,12.51
2023-05-14T06:03:58.302Z,12.56
2023-05-14T06:04:58.403Z,12.57
2023-05-14T06:05:58.442Z,12.77
2023-05-14T06:06:58.469Z,12.83
2023-05-14T06:07:58.537Z,12.85
2023-05-14T06:08:58.614Z,12.92
2023-05-14T06:09:58.706Z,13.09
2023-05-14T06:10:58.777Z,13.15
2023-05-14T06:11:58.835Z,13.19
2023-05-14T06:12:58.899Z,13.15
2023-05-14T06:13:58.950Z,13.27
2023-05-14T06:14:58.997Z,13.30
2023-05-14T06:15:59.020Z,13.38
2023-05-14T06:16:59.141Z,13.27
2023-05-14T06:17:59.237Z,13.40
2023-05-14T06:18:59.275Z,13.43
2023-05-14T06:19:59.238Z,13.53
2023-05-14T06:20:59.328Z,13.50
2023-05-14T06:21:59.382Z,13.32
2023-05-14T06:22:59.467Z,13.33
2023-05-14T06:23:59.556Z,13.39
2023-05-14T06:24:59.658Z,13.39
2023-05-14T06:25:59.718Z,13.32
2023-05-14T06:26:59.786Z,13.32
2023-05-14T06:27:59.880Z,13.18
2023-05-14T06:28:59.949Z,13.29
2023-05-14T06:30:00.010Z,13.38
2023-05-14T06:31:00.082Z,13.51
2023-05-14T06:32:00.359Z,13.43
2023-05-14T06:33:00.244Z,13.56
2023-05-14T06:34:00.196Z,13.60
2023-05-14T06:35:00.255Z,13.56
2023-05-14T06:36:00.327Z,13.78
2023-05-14T06:37:00.345Z,13.98
2023-05-14T06:38:00.418Z,14.09
2023-05-14T06:39:00.431Z,14.23
2023-05-14T06:40:00.491Z,14.29
2023-05-14T06:41:00.523Z,14.32
2023-05-14T06:42:00.563Z,14.26
2023-05-14T06:43:00.620Z,14.22
2023-05-14T06:44:00.649Z,14.35
2023-05-14T06:46:30.129Z,14.40
2023-05-14T06:47:20.544Z,14.29
2023-05-14T06:48:20.628Z,14.33
2023-05-14T06:49:20.567Z,14.33
2023-05-14T06:50:20.583Z,14.29
2023-05-14T06:51:20.602Z,14.39
2023-05-14T06:52:20.564Z,14.39
2023-05-14T06:53:20.581Z,14.44
2023-05-14T06:54:20.602Z,14.43
2023-05-14T06:55:20.540Z,14.37
2023-05-14T06:56:20.528Z,14.36
2023-05-14T06:57:20.536Z,14.47
2023-05-14T06:58:20.504Z,14.47
2023-05-14T06:59:20.483Z,14.59
2023-05-14T07:00:20.484Z,14.66
2023-05-14T07:01:20.436Z,14.60
2023-05-14T07:02:21.158Z,14.83
2023-05-14T07:03:20.365Z,14.80
2023-05-14T07:04:20.372Z,15.01
2023-05-14T07:05:20.299Z,15.09
2023-05-14T07:06:20.294Z,15.26
2023-05-14T07:07:20.230Z,15.33
2023-05-14T07:08:20.204Z,15.43
2023-05-14T07:09:20.196Z,15.43
2023-05-14T07:10:20.135Z,15.22
2023-05-14T07:11:20.120Z,15.29
2023-05-14T07:12:20.188Z,15.17
2023-05-14T07:13:20.211Z,15.25
2023-05-14T07:14:20.235Z,15.25
2023-05-14T07:15:20.236Z,15.35
2023-05-14T07:16:20.228Z,15.12
2023-05-14T07:17:20.349Z,15.29
2023-05-14T07:18:20.254Z,15.22
2023-05-14T07:19:20.210Z,15.35
2023-05-14T07:20:20.194Z,15.40
2023-05-14T07:21:20.156Z,15.35
2023-05-14T07:22:20.138Z,15.43
2023-05-14T07:23:20.227Z,15.63
2023-05-14T07:24:20.103Z,15.73
2023-05-14T07:25:20.110Z,15.56
2023-05-14T07:26:20.104Z,15.56
2023-05-14T07:27:20.085Z,15.63
2023-05-14T07:28:20.076Z,15.71
2023-05-14T07:29:20.082Z,15.85
2023-05-14T07:30:20.094Z,15.92
2023-05-14T07:31:20.262Z,15.90
2023-05-14T07:32:20.102Z,16.07
2023-05-14T07:33:20.081Z,16.18
2023-05-14T07:34:20.067Z,16.15
2023-05-14T07:35:20.101Z,16.29
2023-05-14T07:36:20.125Z,16.37
2023-05-14T07:37:21.025Z,16.47
2023-05-14T07:38:20.116Z,16.46
2023-05-14T07:39:20.066Z,16.47
2023-05-14T07:40:20.035Z,16.22
2023-05-14T07:41:20.037Z,16.40
2023-05-14T07:42:34.614Z,16.56
2023-05-14T07:43:19.941Z,16.63
2023-05-14T07:44:19.893Z,16.63
2023-05-14T07:45:19.849Z,16.75
2023-05-14T07:46:19.812Z,16.71
2023-05-14T07:47:19.806Z,16.80
2023-05-14T07:48:19.775Z,16.88
2023-05-14T07:49:19.674Z,16.92
2023-05-14T07:50:19.637Z,16.85
2023-05-14T07:51:19.602Z,16.85
2023-05-14T07:52:19.567Z,16.90
2023-05-14T07:53:19.526Z,16.87
2023-05-14T07:54:19.472Z,16.75
2023-05-14T07:55:19.436Z,16.84
2023-05-14T07:56:19.405Z,16.84
2023-05-14T07:57:19.396Z,16.85
2023-05-14T07:58:19.321Z,16.57
2023-05-14T07:59:19.308Z,16.66
2023-05-14T08:00:19.268Z,16.66
2023-05-14T08:01:19.238Z,16.64
2023-05-14T08:02:19.230Z,16.53
2023-05-14T08:03:19.280Z,16.57
2023-05-14T08:04:19.184Z,16.54
2023-05-14T08:05:19.132Z,16.52
2023-05-14T08:06:19.103Z,16.32
2023-05-14T08:07:19.079Z,16.39
2023-05-14T08:08:19.070Z,16.29
2023-05-14T08:09:19.052Z,16.18
2023-05-14T08:10:19.067Z,16.09
2023-05-14T08:11:19.055Z,16.11
2023-05-14T08:12:19.003Z,16.11
2023-05-14T08:13:19.008Z,16.05
2023-05-14T08:14:18.946Z,16.05
2023-05-14T08:15:18.929Z,16.16
2023-05-14T08:16:18.918Z,16.18
2023-05-14T08:17:18.917Z,16.04
2023-05-14T08:18:18.844Z,16.09
2023-05-14T08:19:18.999Z,16.18
2023-05-14T08:20:18.890Z,15.95
2023-05-14T08:21:18.864Z,15.94
2023-05-14T08:22:18.882Z,15.84
2023-05-14T08:23:18.928Z,15.71
2023-05-14T08:24:18.976Z,15.70
2023-05-14T08:25:19.011Z,15.73
2023-05-14T08:26:19.051Z,15.63
2023-05-14T08:27:19.110Z,15.56
2023-05-14T08:28:19.110Z,15.61
2023-05-14T08:29:19.184Z,15.45
2023-05-14T08:30:19.193Z,15.35
2023-05-14T08:31:19.301Z,15.30
2023-05-14T08:32:23.383Z,15.33
2023-05-14T08:33:19.229Z,15.26
2023-05-14T08:34:19.229Z,15.33
2023-05-14T08:35:19.208Z,15.37
2023-05-14T08:36:19.197Z,15.18
2023-05-14T08:37:19.204Z,15.12
2023-05-14T08:38:19.199Z,15.25
2023-05-14T08:39:19.219Z,15.22
2023-05-14T08:40:19.229Z,15.17
2023-05-14T08:41:19.235Z,15.06
2023-05-14T08:42:19.246Z,15.06
2023-05-14T08:43:19.250Z,15.02
2023-05-14T08:44:19.260Z,15.09
2023-05-14T08:45:19.276Z,15.17
2023-05-14T08:46:19.244Z,15.11
2023-05-14T08:47:19.256Z,15.21
2023-05-14T08:48:19.322Z,15.32
2023-05-14T08:49:19.247Z,15.42
2023-05-14T08:50:21.000Z,15.60
2023-05-14T08:51:19.218Z,15.71
2023-05-14T08:52:19.175Z,15.88
2023-05-14T08:53:19.131Z,15.94
2023-05-14T08:54:19.094Z,16.16
2023-05-14T08:55:19.069Z,16.28
2023-05-14T08:56:19.044Z,16.30
2023-05-14T08:57:18.980Z,16.42
2023-05-14T08:58:18.950Z,16.40
2023-05-14T08:59:19.642Z,16.50
2023-05-14T09:00:18.896Z,16.60
2023-05-14T09:01:18.898Z,16.74
2023-05-14T09:02:18.791Z,16.82
2023-05-14T09:03:18.798Z,16.96
2023-05-14T09:04:18.855Z,17.04
2023-05-14T09:05:18.651Z,16.96
2023-05-14T09:06:18.618Z,17.15
2023-05-14T09:07:18.569Z,17.29
2023-05-14T09:08:18.529Z,17.40
2023-05-14T09:09:18.513Z,17.23
2023-05-14T09:10:18.461Z,17.39
2023-05-14T09:11:18.407Z,17.45
2023-05-14T09:12:18.367Z,17.67
2023-05-14T09:13:18.300Z,17.74
2023-05-14T09:14:18.260Z,17.87
2023-05-14T09:15:18.199Z,17.92
2023-05-14T09:16:18.148Z,17.91
2023-05-14T09:17:18.117Z,18.01
2023-05-14T09:18:18.027Z,18.11
2023-05-14T09:19:18.051Z,18.25
2023-05-14T09:20:17.948Z,18.31
2023-05-14T09:21:17.916Z,18.54
2023-05-14T09:22:17.905Z,18.64
2023-05-14T09:23:17.875Z,18.60
2023-05-14T09:24:17.860Z,18.75
2023-05-14T09:25:17.881Z,18.86
2023-05-14T09:26:17.857Z,18.73
2023-05-14T09:27:17.859Z,18.73
2023-05-14T09:28:17.735Z,18.62
2023-05-14T09:29:17.714Z,18.77
2023-05-14T09:30:17.661Z,18.91
2023-05-14T09:31:17.693Z,18.91
2023-05-14T09:32:17.647Z,18.98
2023-05-14T09:33:17.662Z,18.95
2023-05-14T09:34:17.663Z,18.91
2023-05-14T09:35:17.894Z,18.94
2023-05-14T09:36:17.537Z,18.81
2023-05-14T09:37:17.491Z,18.75
2023-05-14T09:38:17.465Z,18.93
2023-05-14T09:39:17.441Z,18.75
2023-05-14T09:40:17.429Z,18.93
2023-05-14T09:41:17.414Z,18.70
2023-05-14T09:42:17.353Z,18.81
2023-05-14T09:43:17.328Z,18.56
2023-05-14T09:44:17.276Z,18.59
2023-05-14T09:45:17.240Z,18.64
2023-05-14T09:46:17.228Z,18.49
2023-05-14T09:47:17.301Z,18.37
2023-05-14T09:48:17.222Z,18.57
2023-05-14T09:49:17.178Z,18.60
2023-05-14T09:50:17.109Z,18.70
2023-05-14T09:51:17.098Z,18.70
2023-05-14T09:52:17.073Z,18.31
2023-05-14T09:53:17.021Z,18.40
2023-05-14T09:54:16.998Z,18.46
2023-05-14T09:55:16.988Z,18.47
2023-05-14T09:56:16.943Z,18.25
2023-05-14T09:57:16.943Z,18.43
2023-05-14T09:58:16.913Z,18.13
2023-05-14T09:59:16.922Z,18.28
2023-05-14T10:00:16.883Z,18.33
2023-05-14T10:01:16.877Z,17.95
2023-05-14T10:02:16.805Z,18.25
2023-05-14T10:03:19.750Z,18.18
2023-05-14T10:04:16.789Z,18.25
2023-05-14T10:05:16.703Z,18.08
2023-05-14T10:06:16.639Z,18.12
2023-05-14T10:07:16.578Z,18.13
2023-05-14T10:08:16.527Z,18.04
2023-05-14T10:09:16.462Z,18.20
2023-05-14T10:10:16.432Z,18.04
2023-05-14T10:11:16.363Z,18.04
2023-05-14T10:12:16.327Z,17.94
2023-05-14T10:13:16.308Z,17.76
2023-05-14T10:14:15.274Z,17.54
2023-05-14T10:15:16.255Z,17.50
2023-05-14T10:16:16.227Z,17.33
2023-05-14T10:17:16.248Z,17.11
2023-05-14T10:18:16.276Z,16.92
2023-05-14T10:19:16.247Z,16.90
2023-05-14T10:20:16.179Z,16.66
2023-05-14T10:21:16.207Z,16.56
2023-05-14T10:22:16.171Z,16.67
2023-05-14T10:23:16.155Z,16.67
2023-05-14T10:24:16.125Z,16.71
2023-05-14T10:25:16.104Z,16.77
2023-05-14T10:26:16.094Z,16.82
2023-05-14T10:27:16.131Z,17.05
2023-05-14T10:28:16.053Z,17.12
2023-05-14T10:29:16.064Z,17.19
2023-05-14T10:30:16.071Z,17.22
2023-05-14T10:31:16.188Z,17.29
2023-05-14T10:32:16.128Z,17.37
2023-05-14T10:33:16.198Z,17.46
2023-05-14T10:34:16.121Z,17.53
2023-05-14T10:35:16.147Z,17.59
2023-05-14T10:36:16.213Z,17.67
2023-05-14T10:37:16.213Z,17.67
2023-05-14T10:38:16.179Z,17.63
2023-05-14T10:39:16.192Z,17.70
2023-05-14T10:40:16.273Z,17.82
2023-05-14T10:41:16.166Z,17.81
2023-05-14T10:42:16.149Z,17.91
2023-05-14T10:43:16.109Z,18.07
2023-05-14T10:44:16.100Z,17.87
2023-05-14T10:45:16.104Z,18.01
2023-05-14T10:46:16.146Z,17.81
2023-05-14T10:47:16.124Z,17.67
2023-05-14T10:48:16.205Z,17.67
2023-05-14T10:49:19.327Z,17.60
2023-05-14T10:50:16.098Z,17.77
2023-05-14T10:51:16.089Z,17.71
2023-05-14T10:52:15.979Z,17.88
2023-05-14T10:53:15.968Z,17.87
2023-05-14T10:54:15.871Z,17.99
2023-05-14T10:55:15.831Z,17.95
2023-05-14T10:56:15.790Z,18.08
2023-05-14T10:57:15.732Z,18.18
2023-05-14T10:58:15.705Z,18.16
2023-05-14T10:59:15.642Z,18.02
2023-05-14T11:00:15.636Z,18.13
2023-05-14T11:01:15.577Z,18.02
2023-05-14T11:02:15.574Z,18.12
2023-05-14T11:03:15.634Z,18.07
2023-05-14T11:04:15.503Z,18.01
2023-05-14T11:05:15.666Z,17.92
2023-05-14T11:06:15.431Z,17.97
2023-05-14T11:07:15.404Z,18.07
2023-05-14T11:08:15.356Z,18.05
2023-05-14T11:09:15.361Z,18.02
2023-05-14T11:10:15.367Z,17.95
2023-05-14T11:11:15.265Z,17.98
2023-05-14T11:12:15.253Z,17.95
2023-05-14T11:13:15.181Z,18.02
2023-05-14T11:14:15.135Z,17.97
2023-05-14T11:15:15.099Z,18.02
2023-05-14T11:16:22.443Z,18.07
2023-05-14T11:17:15.066Z,18.01
2023-05-14T11:18:14.939Z,18.08
2023-05-14T11:19:14.935Z,18.05
2023-05-14T11:20:14.848Z,18.13
2023-05-14T11:21:14.789Z,17.95
2023-05-14T11:22:14.741Z,17.99
2023-05-14T11:23:14.690Z,17.95
2023-05-14T11:24:14.607Z,18.12
2023-05-14T11:25:15.124Z,18.15
2023-05-14T11:26:14.501Z,17.94
2023-05-14T11:27:14.428Z,18.05
2023-05-14T11:28:14.391Z,18.09
2023-05-14T11:29:14.338Z,18.04
2023-05-14T11:30:14.327Z,18.11
2023-05-14T11:31:14.322Z,18.12
2023-05-14T11:32:14.235Z,18.20
2023-05-14T11:33:14.245Z,18.29
2023-05-14T11:34:14.133Z,18.45
2023-05-14T11:35:14.089Z,18.54
2023-05-14T11:36:14.008Z,18.47
2023-05-14T11:37:13.946Z,18.54
2023-05-14T11:38:13.922Z,18.47
2023-05-14T11:39:13.838Z,18.47
2023-05-14T11:40:13.790Z,18.50
2023-05-14T11:41:13.846Z,18.26
2023-05-14T11:42:13.693Z,18.42
2023-05-14T11:43:13.646Z,18.45
2023-05-14T11:44:13.589Z,18.52
2023-05-14T11:45:13.547Z,18.40
2023-05-14T11:46:13.497Z,18.62
2023-05-14T11:47:13.429Z,18.56
2023-05-14T11:48:13.490Z,18.40
2023-05-14T11:49:13.328Z,18.57
2023-05-14T11:50:13.311Z,18.53
2023-05-14T11:51:13.262Z,18.37
2023-05-14T11:52:13.291Z,18.57
2023-05-14T11:53:13.256Z,18.36
2023-05-14T11:54:13.281Z,18.39
2023-05-14T11:55:13.300Z,18.40
2023-05-14T11:56:13.299Z,18.36
2023-05-14T11:57:13.365Z,18.45
2023-05-14T11:58:13.339Z,18.53
2023-05-14T11:59:13.322Z,18.50
2023-05-14T12:00:13.342Z,18.63
2023-05-14T12:01:13.314Z,18.62
2023-05-14T12:02:13.364Z,18.74
2023-05-14T12:03:13.375Z,18.71
2023-05-14T12:04:13.295Z,18.80
2023-05-14T12:05:13.289Z,18.46
2023-05-14T12:06:13.160Z,18.04
2023-05-14T12:07:13.124Z,17.82
2023-05-14T12:08:13.043Z,17.81
2023-05-14T12:09:12.967Z,18.20
2023-05-14T12:10:12.908Z,18.35
2023-05-14T12:11:12.858Z,18.50
2023-05-14T12:12:12.864Z,18.56
2023-05-14T12:13:12.721Z,18.64
2023-05-14T12:14:12.662Z,18.70
2023-05-14T12:15:12.670Z,18.83
2023-05-14T12:16:12.731Z,18.87
2023-05-14T12:17:12.662Z,18.90
2023-05-14T12:18:23.482Z,18.88
2023-05-14T12:19:12.587Z,18.94
2023-05-14T12:20:12.634Z,19.02
2023-05-14T12:21:12.413Z,19.05
2023-05-14T12:22:12.333Z,19.05
2023-05-14T12:23:12.264Z,19.12
2023-05-14T12:24:12.183Z,19.16
2023-05-14T12:25:12.095Z,19.18
2023-05-14T12:26:12.025Z,19.25
2023-05-14T12:27:11.948Z,19.27
2023-05-14T12:28:11.883Z,19.25
2023-05-14T12:29:11.831Z,19.15
2023-05-14T12:31:10.739Z,18.75
2023-05-14T12:32:11.648Z,18.49
2023-05-14T12:33:11.646Z,18.11
2023-05-14T12:34:11.591Z,18.20
2023-05-14T12:35:11.549Z,18.12
2023-05-14T12:36:21.347Z,18.05
2023-05-14T12:37:11.460Z,17.87
2023-05-14T12:38:11.435Z,17.70
2023-05-14T12:39:11.391Z,17.66
2023-05-14T12:40:11.379Z,17.46
2023-05-14T12:41:11.342Z,17.57
2023-05-14T12:42:11.313Z,17.57
2023-05-14T12:43:11.272Z,17.49
2023-05-14T12:44:11.251Z,17.56
2023-05-14T12:45:11.245Z,17.39
2023-05-14T12:46:11.169Z,17.39
2023-05-14T12:47:11.206Z,17.23
2023-05-14T12:48:11.152Z,17.21
2023-05-14T12:49:11.080Z,16.96
2023-05-14T12:50:11.066Z,16.92
2023-05-14T12:51:11.060Z,16.92
2023-05-14T12:53:10.015Z,16.66
2023-05-14T12:54:10.983Z,16.67
2023-05-14T12:55:10.962Z,16.75
2023-05-14T12:56:10.954Z,16.54